createdAt,value
2022-10-31T00:01:35.500Z,13.92
2022-10-31T00:04:02.500Z,13.95
2022-10-31T00:06:29.522Z,13.87
2022-10-31T00:09:02.024Z,13.89
2022-10-31T00:11:29.415Z,13.85
2022-10-31T00:13:58.235Z,13.81
2022-10-31T00:16:26.120Z,13.84
2022-10-31T00:18:56.658Z,13.87
2022-10-31T00:21:23.597Z,13.83
2022-10-31T00:23:50.555Z,13.77
2022-10-31T00:26:17.820Z,13.82
2022-10-31T00:28:44.625Z,13.71
2022-10-31T00:31:13.275Z,13.77
2022-10-31T00:33:41.487Z,13.82
2022-10-31T00:36:13.799Z,13.70
2022-10-31T00:38:42.057Z,13.75
2022-10-31T00:41:09.941Z,13.74
2022-10-31T00:43:36.837Z,13.67
2022-10-31T00:46:03.802Z,13.68
2022-10-31T00:48:31.058Z,13.64
2022-10-31T00:50:58.190Z,13.65
2022-10-31T00:53:25.093Z,13.64
2022-10-31T00:55:51.902Z,13.57
2022-10-31T00:58:18.660Z,13.60
2022-10-31T01:00:48.111Z,13.51
2022-10-31T01:03:17.768Z,13.47
2022-10-31T01:05:44.630Z,13.51
2022-10-31T01:08:11.427Z,13.51
2022-10-31T01:10:38.192Z,13.52
2022-10-31T01:13:04.954Z,13.51
2022-10-31T01:15:31.746Z,13.48
2022-10-31T01:17:58.767Z,13.46
2022-10-31T01:20:25.726Z,13.46
2022-10-31T01:22:52.486Z,13.43
2022-10-31T01:25:19.346Z,13.39
2022-10-31T01:27:46.280Z,13.37
2022-10-31T01:30:13.330Z,13.37
2022-10-31T01:32:40.201Z,13.40
2022-10-31T01:35:07.366Z,13.29
2022-10-31T01:37:34.168Z,13.26
2022-10-31T01:40:00.960Z,13.27
2022-10-31T01:42:27.867Z,13.32
2022-10-31T01:45:01.662Z,13.25
2022-10-31T01:47:39.643Z,13.23
2022-10-31T01:50:15.402Z,13.20
2022-10-31T01:52:47.063Z,13.21
2022-10-31T01:55:27.822Z,13.12
2022-10-31T01:58:08.626Z,13.13
2022-10-31T02:00:35.714Z,13.09
2022-10-31T02:03:03.270Z,13.10
2022-10-31T02:05:31.907Z,13.10
2022-10-31T02:08:08.919Z,13.10
2022-10-31T02:10:37.741Z,13.01
2022-10-31T02:13:08.283Z,12.98
2022-10-31T02:15:37.778Z,13.00
2022-10-31T02:18:05.776Z,12.92
2022-10-31T02:20:48.943Z,12.92
2022-10-31T02:23:50.376Z,12.92
2022-10-31T02:26:53.047Z,12.90
2022-10-31T02:29:55.512Z,12.94
2022-10-31T02:32:58.993Z,12.85
2022-10-31T02:35:38.061Z,12.90
2022-10-31T02:38:26.071Z,12.88
2022-10-31T02:41:11.586Z,12.90
2022-10-31T02:44:08.070Z,12.86
2022-10-31T02:46:51.420Z,12.85
2022-10-31T02:49:51.537Z,12.83
2022-10-31T02:52:22.722Z,12.83
2022-10-31T02:54:49.973Z,12.72
2022-10-31T02:57:22.643Z,12.76
2022-10-31T02:59:57.246Z,12.76
2022-10-31T03:02:58.649Z,12.76
2022-10-31T03:05:34.000Z,12.80
2022-10-31T03:08:31.169Z,12.75
2022-10-31T03:11:09.200Z,12.72
2022-10-31T03:13:50.543Z,12.64
2022-10-31T03:16:38.504Z,12.72
2022-10-31T03:19:10.418Z,12.61
2022-10-31T03:21:45.684Z,12.66
2022-10-31T03:24:15.756Z,12.67
2022-10-31T03:26:53.740Z,12.69
2022-10-31T03:29:26.133Z,12.69
2022-10-31T03:32:01.740Z,12.62
2022-10-31T03:34:31.035Z,12.59
2022-10-31T03:37:02.763Z,12.59
2022-10-31T03:39:30.953Z,12.59
2022-10-31T03:42:06.768Z,12.56
2022-10-31T03:44:35.743Z,12.54
2022-10-31T03:47:04.972Z,12.40
2022-10-31T03:49:34.147Z,12.41
2022-10-31T03:52:13.919Z,12.54
2022-10-31T03:54:58.138Z,12.54
2022-10-31T03:57:36.378Z,12.49
2022-10-31T04:00:12.340Z,12.53
2022-10-31T04:02:46.612Z,12.54
2022-10-31T04:05:16.394Z,12.43
2022-10-31T04:07:47.890Z,12.51
2022-10-31T04:10:18.038Z,12.41
2022-10-31T04:12:52.307Z,12.37
2022-10-31T04:15:20.802Z,12.34
2022-10-31T04:17:50.729Z,12.44
2022-10-31T04:20:18.553Z,12.45
2022-10-31T04:22:45.837Z,12.35
2022-10-31T04:25:12.611Z,12.41
2022-10-31T04:27:39.379Z,12.40
2022-10-31T04:30:07.171Z,12.31
2022-10-31T04:32:33.930Z,12.36
2022-10-31T04:35:00.700Z,12.31
2022-10-31T04:37:27.463Z,12.30
2022-10-31T04:39:54.258Z,12.27
2022-10-31T04:42:21.154Z,12.32
2022-10-31T04:44:47.939Z,12.23
2022-10-31T04:47:14.712Z,12.24
2022-10-31T04:49:41.568Z,12.25
2022-10-31T04:52:09.069Z,12.18
2022-10-31T04:54:35.909Z,12.20
2022-10-31T04:57:02.775Z,12.23
2022-10-31T04:59:29.572Z,12.25
2022-10-31T05:01:56.574Z,12.10
2022-10-31T05:04:23.529Z,12.19
2022-10-31T05:06:50.328Z,12.16
2022-10-31T05:09:17.131Z,12.16
2022-10-31T05:11:43.924Z,12.14
2022-10-31T05:14:10.737Z,12.06
2022-10-31T05:16:37.523Z,12.09
2022-10-31T05:19:04.308Z,12.08
2022-10-31T05:21:31.104Z,12.05
2022-10-31T05:23:57.864Z,12.03
2022-10-31T05:26:24.844Z,12.09
2022-10-31T05:28:51.652Z,11.99
2022-10-31T05:31:18.439Z,12.07
2022-10-31T05:33:45.341Z,11.93
2022-10-31T05:36:12.174Z,11.90
2022-10-31T05:38:39.041Z,11.96
2022-10-31T05:41:05.855Z,11.92
2022-10-31T05:43:32.640Z,11.93
2022-10-31T05:45:59.426Z,11.90
2022-10-31T05:48:26.179Z,11.80
2022-10-31T05:50:53.199Z,11.74
2022-10-31T05:53:19.974Z,11.76
2022-10-31T05:55:47.283Z,11.77
2022-10-31T05:58:14.117Z,11.71
2022-10-31T06:00:41.003Z,11.66
2022-10-31T06:05:41.979Z,11.71
2022-10-31T06:08:08.854Z,11.70
2022-10-31T06:10:35.746Z,11.56
2022-10-31T06:13:02.519Z,11.58
2022-10-31T06:15:29.305Z,11.63
2022-10-31T06:18:06.623Z,11.68
2022-10-31T06:20:34.293Z,11.61
2022-10-31T06:23:01.498Z,11.65
2022-10-31T06:25:29.410Z,11.60
2022-10-31T06:27:57.119Z,11.62
2022-10-31T06:30:23.927Z,11.58
2022-10-31T06:32:50.793Z,11.69
2022-10-31T06:35:18.062Z,11.66
2022-10-31T06:37:53.229Z,11.69
2022-10-31T06:40:20.141Z,11.70
2022-10-31T06:42:46.939Z,11.46
2022-10-31T06:45:13.866Z,11.69
2022-10-31T06:47:56.725Z,11.59
2022-10-31T06:50:27.391Z,11.71
2022-10-31T06:52:58.942Z,11.71
2022-10-31T06:55:27.180Z,11.69
2022-10-31T06:58:02.829Z,11.68
2022-10-31T07:00:31.351Z,11.67
2022-10-31T07:03:01.250Z,11.76
2022-10-31T07:05:29.369Z,11.75
2022-10-31T07:08:02.767Z,11.78
2022-10-31T07:10:35.652Z,11.75
2022-10-31T07:13:10.655Z,11.82
2022-10-31T07:15:40.436Z,11.86
2022-10-31T07:18:10.135Z,11.83
2022-10-31T07:20:37.305Z,11.78
2022-10-31T07:23:05.109Z,11.82
2022-10-31T07:25:32.417Z,11.83
2022-10-31T07:27:59.681Z,11.88
2022-10-31T07:30:26.779Z,11.89
2022-10-31T07:32:53.774Z,11.94
2022-10-31T07:35:25.932Z,11.93
2022-10-31T07:37:53.386Z,11.92
2022-10-31T07:40:21.965Z,11.98
2022-10-31T07:42:51.477Z,12.02
2022-10-31T07:45:21.805Z,12.05
2022-10-31T07:47:51.503Z,12.01
2022-10-31T07:50:27.824Z,12.06
2022-10-31T07:53:11.500Z,12.11
2022-10-31T07:55:40.077Z,12.09
2022-10-31T07:58:09.131Z,12.15
2022-10-31T08:00:41.563Z,12.20
2022-10-31T08:03:15.083Z,12.21
2022-10-31T08:05:42.477Z,12.27
2022-10-31T08:08:09.965Z,12.16
2022-10-31T08:10:37.541Z,12.35
2022-10-31T08:13:22.636Z,12.33
2022-10-31T08:15:51.444Z,12.36
2022-10-31T08:18:18.501Z,12.29
2022-10-31T08:20:45.734Z,12.40
2022-10-31T08:23:13.854Z,12.49
2022-10-31T08:25:41.193Z,12.39
2022-10-31T08:28:10.166Z,12.53
2022-10-31T08:30:38.873Z,12.56
2022-10-31T08:33:18.218Z,12.60
2022-10-31T08:35:45.488Z,12.67
2022-10-31T08:38:13.748Z,12.70
2022-10-31T08:40:40.835Z,12.69
2022-10-31T08:43:13.634Z,12.63
2022-10-31T08:45:41.108Z,12.74
2022-10-31T08:48:13.023Z,12.71
2022-10-31T08:50:40.654Z,12.75
2022-10-31T08:53:12.944Z,12.79
2022-10-31T08:55:41.331Z,12.89
2022-10-31T08:58:12.908Z,12.95
2022-10-31T09:00:39.955Z,12.99
2022-10-31T09:03:11.963Z,13.04
2022-10-31T09:05:39.265Z,12.97
2022-10-31T09:08:11.677Z,13.05
2022-10-31T09:10:42.386Z,13.13
2022-10-31T09:13:14.207Z,13.12
2022-10-31T09:15:44.602Z,13.15
2022-10-31T09:18:13.232Z,13.24
2022-10-31T09:20:41.789Z,13.26
2022-10-31T09:23:13.588Z,13.28
2022-10-31T09:25:43.087Z,13.36
2022-10-31T09:28:16.400Z,13.38
2022-10-31T09:30:43.582Z,13.35
2022-10-31T09:33:14.386Z,13.40
2022-10-31T09:35:42.104Z,13.49
2022-10-31T09:38:17.650Z,13.51
2022-10-31T09:40:48.715Z,13.49
2022-10-31T09:44:08.716Z,13.60
2022-10-31T09:46:55.413Z,13.61
2022-10-31T09:50:02.406Z,13.68
2022-10-31T09:52:35.427Z,13.70
2022-10-31T09:55:27.783Z,13.73
2022-10-31T09:57:55.042Z,13.78
2022-10-31T10:00:23.429Z,13.73
2022-10-31T10:03:20.205Z,13.86
2022-10-31T10:06:05.584Z,13.89
2022-10-31T10:08:34.289Z,13.94
2022-10-31T10:11:32.280Z,13.95
2022-10-31T10:14:07.443Z,13.91
2022-10-31T10:16:52.123Z,14.02
2022-10-31T10:20:03.085Z,14.07
2022-10-31T10:23:31.760Z,14.10
2022-10-31T10:26:16.835Z,14.15
2022-10-31T10:28:48.551Z,14.19
2022-10-31T10:31:24.470Z,14.21
2022-10-31T10:34:18.380Z,14.25
2022-10-31T10:37:18.717Z,14.25
2022-10-31T10:39:52.571Z,14.32
2022-10-31T10:42:37.669Z,14.33
2022-10-31T10:45:39.934Z,14.39
2022-10-31T10:48:40.224Z,14.35
2022-10-31T10:51:25.705Z,14.35
2022-10-31T10:54:14.892Z,14.48
2022-10-31T10:57:48.000Z,14.50
2022-10-31T11:00:27.408Z,14.47
2022-10-31T11:02:54.583Z,14.51
2022-10-31T11:05:37.275Z,14.59
2022-10-31T11:08:06.031Z,14.60
2022-10-31T11:10:34.191Z,14.63
2022-10-31T11:13:16.890Z,14.65
2022-10-31T11:16:08.052Z,14.62
2022-10-31T11:18:41.304Z,14.71
2022-10-31T11:21:31.159Z,14.73
2022-10-31T11:24:10.061Z,14.77
2022-10-31T11:26:42.455Z,14.79
2022-10-31T11:29:23.245Z,14.78
2022-10-31T11:31:56.012Z,14.85
2022-10-31T11:34:32.591Z,14.80
2022-10-31T11:37:14.602Z,14.91
2022-10-31T11:39:45.547Z,14.91
2022-10-31T11:42:13.974Z,14.89
2022-10-31T11:44:44.404Z,14.94
2022-10-31T11:47:16.545Z,14.96
2022-10-31T11:49:51.490Z,15.06
2022-10-31T11:52:26.747Z,15.08
2022-10-31T11:55:02.493Z,15.12
2022-10-31T11:57:56.693Z,15.13
2022-10-31T12:00:30.909Z,15.18
2022-10-31T12:03:25.685Z,15.22
2022-10-31T12:06:07.962Z,15.27
2022-10-31T12:08:37.484Z,15.23
2022-10-31T12:11:24.937Z,15.40
2022-10-31T12:14:19.879Z,15.48
2022-10-31T12:17:12.302Z,15.47
2022-10-31T12:20:12.164Z,15.53
2022-10-31T12:23:04.571Z,15.55
2022-10-31T12:25:43.328Z,15.55
2022-10-31T12:28:28.697Z,15.57
2022-10-31T12:31:47.556Z,15.57
2022-10-31T12:34:47.817Z,15.58
2022-10-31T12:37:58.294Z,15.60
2022-10-31T12:41:03.635Z,15.62
2022-10-31T12:43:49.081Z,15.63
2022-10-31T12:46:33.816Z,15.66
2022-10-31T12:49:30.165Z,15.67
2022-10-31T12:52:40.711Z,15.67
2022-10-31T12:55:56.899Z,15.64
2022-10-31T12:58:31.458Z,15.71
2022-10-31T13:01:21.713Z,15.63
2022-10-31T13:04:13.510Z,15.66
2022-10-31T13:06:56.757Z,15.75
2022-10-31T13:09:51.350Z,15.74
2022-10-31T13:12:21.833Z,15.71
2022-10-31T13:15:13.490Z,15.81
2022-10-31T13:18:05.759Z,15.81
2022-10-31T13:20:43.489Z,15.81
2022-10-31T13:23:50.453Z,15.85
2022-10-31T13:26:44.093Z,15.87
2022-10-31T13:29:13.459Z,15.88
2022-10-31T13:31:44.028Z,15.80
2022-10-31T13:34:26.350Z,15.92
2022-10-31T13:37:22.319Z,15.93
2022-10-31T13:40:37.759Z,15.96
2022-10-31T13:43:14.718Z,15.96
2022-10-31T13:45:56.749Z,15.93
2022-10-31T13:48:26.678Z,16.00
2022-10-31T13:51:03.710Z,15.99
2022-10-31T13:53:57.448Z,15.89
2022-10-31T13:56:34.240Z,16.03
2022-10-31T13:59:10.321Z,16.12
2022-10-31T14:01:38.170Z,16.10
2022-10-31T14:04:24.698Z,16.14
2022-10-31T14:07:14.604Z,16.13
2022-10-31T14:10:00.527Z,16.21
2022-10-31T14:12:41.992Z,16.19
2022-10-31T14:15:27.160Z,16.15
2022-10-31T14:18:00.384Z,16.26
2022-10-31T14:20:44.261Z,16.31
2022-10-31T14:23:37.367Z,16.35
2022-10-31T14:26:08.149Z,16.37
2022-10-31T14:28:36.693Z,16.40
2022-10-31T14:31:03.792Z,16.43
2022-10-31T14:33:32.039Z,16.45
2022-10-31T14:36:28.744Z,16.47
2022-10-31T14:39:09.342Z,16.47
2022-10-31T14:42:10.371Z,16.53
2022-10-31T14:45:05.566Z,16.61
2022-10-31T14:47:50.168Z,16.67
2022-10-31T14:50:42.475Z,16.69
2022-10-31T14:53:34.792Z,16.70
2022-10-31T14:56:06.666Z,16.65
2022-10-31T14:58:45.153Z,16.72
2022-10-31T15:01:32.454Z,16.72
2022-10-31T15:04:23.472Z,16.75
2022-10-31T15:07:01.968Z,16.75
2022-10-31T15:09:35.478Z,16.77
2022-10-31T15:12:26.843Z,16.78
2022-10-31T15:14:54.109Z,16.78
2022-10-31T15:17:22.123Z,16.77
2022-10-31T15:19:49.369Z,16.78
2022-10-31T15:22:19.678Z,16.78
2022-10-31T15:24:46.716Z,16.78
2022-10-31T15:27:16.785Z,16.67
2022-10-31T15:30:20.587Z,16.76
2022-10-31T15:32:57.474Z,16.71
2022-10-31T15:35:31.532Z,16.74
2022-10-31T15:38:00.513Z,16.59
2022-10-31T15:40:29.037Z,16.71
2022-10-31T15:43:05.584Z,16.66
2022-10-31T15:45:32.791Z,16.64
2022-10-31T15:48:12.536Z,16.69
2022-10-31T15:50:51.973Z,16.61
2022-10-31T15:53:23.628Z,16.65
2022-10-31T15:56:09.293Z,16.64
2022-10-31T15:58:52.724Z,16.62
2022-10-31T16:01:24.902Z,16.55
2022-10-31T16:04:05.596Z,16.58
2022-10-31T16:06:35.357Z,16.58
2022-10-31T16:09:03.422Z,16.55
2022-10-31T16:11:37.825Z,16.54
2022-10-31T16:14:11.606Z,16.54
2022-10-31T16:16:50.199Z,16.53
2022-10-31T16:19:35.930Z,16.50
2022-10-31T16:22:11.008Z,16.42
2022-10-31T16:24:47.418Z,16.46
2022-10-31T16:27:29.520Z,16.38
2022-10-31T16:30:02.296Z,16.38
2022-10-31T16:32:38.378Z,16.41
2022-10-31T16:35:11.208Z,16.37
2022-10-31T16:37:44.748Z,16.37
2022-10-31T16:40:16.085Z,16.28
2022-10-31T16:42:44.700Z,16.30
2022-10-31T16:45:24.812Z,16.24
2022-10-31T16:47:52.280Z,16.20
2022-10-31T16:50:26.400Z,16.14
2022-10-31T16:53:12.929Z,16.14
2022-10-31T16:55:46.030Z,16.11
2022-10-31T16:58:21.837Z,16.06
2022-10-31T17:00:49.067Z,16.13
2022-10-31T17:03:15.944Z,15.95
2022-10-31T17:06:28.369Z,16.01
2022-10-31T17:08:55.615Z,16.01
2022-10-31T17:11:25.792Z,15.96
2022-10-31T17:13:53.944Z,15.92
2022-10-31T17:16:20.864Z,15.92
2022-10-31T17:18:47.687Z,15.86
2022-10-31T17:21:26.328Z,15.89
2022-10-31T17:23:53.113Z,15.76
2022-10-31T17:26:20.761Z,15.79
2022-10-31T17:28:47.946Z,15.72
2022-10-31T17:31:23.524Z,15.69
2022-10-31T17:33:51.047Z,15.71
2022-10-31T17:36:18.042Z,15.65
2022-10-31T17:38:44.841Z,15.68
2022-10-31T17:41:11.777Z,15.57
2022-10-31T17:43:38.951Z,15.55
2022-10-31T17:46:06.969Z,15.50
2022-10-31T17:48:36.128Z,15.52
2022-10-31T17:51:05.206Z,15.55
2022-10-31T17:53:34.456Z,15.48
2022-10-31T17:56:07.364Z,15.41
2022-10-31T17:58:37.480Z,15.44
2022-10-31T18:01:14.445Z,15.47
2022-10-31T18:03:41.643Z,15.40
2022-10-31T18:06:10.421Z,15.19
2022-10-31T18:08:40.394Z,15.35
2022-10-31T18:11:09.965Z,15.25
2022-10-31T18:13:38.119Z,15.29
2022-10-31T18:16:19.133Z,15.35
2022-10-31T18:18:54.787Z,15.23
2022-10-31T18:21:21.925Z,15.20
2022-10-31T18:23:48.803Z,15.15
2022-10-31T18:26:15.606Z,15.17
2022-10-31T18:28:42.356Z,15.07
2022-10-31T18:31:09.187Z,15.06
2022-10-31T18:33:37.842Z,14.91
2022-10-31T18:36:06.849Z,15.01
2022-10-31T18:38:37.379Z,14.90
2022-10-31T18:41:04.291Z,14.99
2022-10-31T18:43:31.105Z,14.88
2022-10-31T18:46:02.651Z,14.88
2022-10-31T18:48:31.329Z,14.86
2022-10-31T18:51:06.439Z,14.83
2022-10-31T18:53:33.706Z,14.72
2022-10-31T18:56:01.241Z,14.72
2022-10-31T18:58:29.480Z,14.66
2022-10-31T19:00:56.349Z,14.73
2022-10-31T19:03:27.253Z,14.62
2022-10-31T19:05:57.013Z,14.63
2022-10-31T19:08:23.974Z,14.73
2022-10-31T19:10:50.915Z,14.69
2022-10-31T19:13:17.791Z,14.66
2022-10-31T19:15:44.673Z,14.63
2022-10-31T19:18:11.436Z,14.64
2022-10-31T19:20:39.384Z,14.60
2022-10-31T19:23:06.723Z,14.64
2022-10-31T19:25:33.640Z,14.56
2022-10-31T19:28:00.965Z,14.49
2022-10-31T19:30:27.978Z,14.57
2022-10-31T19:32:55.890Z,14.63
2022-10-31T19:35:22.700Z,14.56
2022-10-31T19:37:49.454Z,14.55
2022-10-31T19:40:16.230Z,14.55
2022-10-31T19:42:43.103Z,14.40
2022-10-31T19:45:10.908Z,14.37
2022-10-31T19:47:37.725Z,14.40
2022-10-31T19:50:05.040Z,14.41
2022-10-31T19:52:35.401Z,14.37
2022-10-31T19:55:02.714Z,14.25
2022-10-31T19:57:48.962Z,14.26
2022-10-31T20:00:16.575Z,14.28
2022-10-31T20:02:43.386Z,14.34
2022-10-31T20:05:10.220Z,14.40
2022-10-31T20:07:37.068Z,14.35
2022-10-31T20:10:04.065Z,14.40
2022-10-31T20:12:33.735Z,14.39
2022-10-31T20:15:00.578Z,14.45
2022-10-31T20:17:27.371Z,14.41
2022-10-31T20:19:54.203Z,14.43
2022-10-31T20:22:21.140Z,14.39
2022-10-31T20:24:47.937Z,14.30
2022-10-31T20:27:14.807Z,14.26
2022-10-31T20:29:41.651Z,14.29
2022-10-31T20:32:08.515Z,14.29
2022-10-31T20:34:35.350Z,14.28
2022-10-31T20:37:02.185Z,14.28
2022-10-31T20:39:29.561Z,14.26
2022-10-31T20:41:56.355Z,14.22
2022-10-31T20:44:23.342Z,14.20
2022-10-31T20:46:50.108Z,14.23
2022-10-31T20:49:17.774Z,14.26
2022-10-31T20:51:44.579Z,14.22
2022-10-31T20:54:13.548Z,14.29
2022-10-31T20:56:40.670Z,14.33
2022-10-31T20:59:07.628Z,14.26
2022-10-31T21:01:36.379Z,14.26
2022-10-31T21:04:04.636Z,14.22
2022-10-31T21:06:31.654Z,14.18
2022-10-31T21:08:58.707Z,14.23
2022-10-31T21:11:27.825Z,14.20
2022-10-31T21:13:54.905Z,14.20
2022-10-31T21:16:26.125Z,14.20
2022-10-31T21:18:53.881Z,14.15
2022-10-31T21:21:29.109Z,14.19
2022-10-31T21:24:06.503Z,14.18
2022-10-31T21:26:38.330Z,14.21
2022-10-31T21:29:08.464Z,14.22
2022-10-31T21:31:37.880Z,14.22
2022-10-31T21:34:05.355Z,14.18
2022-10-31T21:36:32.963Z,14.19
2022-10-31T21:38:59.710Z,14.13
2022-10-31T21:41:28.053Z,14.17
2022-10-31T21:43:55.564Z,14.04
2022-10-31T21:46:28.846Z,14.16
2022-10-31T21:48:56.716Z,14.16
2022-10-31T21:51:30.460Z,14.11
2022-10-31T21:54:16.152Z,14.17
2022-10-31T21:56:43.761Z,14.06
2022-10-31T21:59:10.669Z,14.02
2022-10-31T22:01:38.263Z,14.06
2022-10-31T22:04:06.065Z,14.00
2022-10-31T22:06:33.733Z,13.94
2022-10-31T22:09:03.319Z,14.04
2022-10-31T22:11:30.333Z,13.94
2022-10-31T22:13:59.806Z,13.93
2022-10-31T22:16:28.985Z,13.95
2022-10-31T22:18:58.650Z,13.97
2022-10-31T22:21:28.121Z,13.96
2022-10-31T22:24:01.750Z,13.91
2022-10-31T22:26:32.224Z,13.89
2022-10-31T22:29:02.242Z,13.96
2022-10-31T22:31:31.003Z,13.91
2022-10-31T22:33:58.437Z,13.89
2022-10-31T22:36:29.982Z,13.91
2022-10-31T22:38:58.009Z,13.93
2022-10-31T22:41:29.061Z,13.90
2022-10-31T22:43:57.192Z,13.85
2022-10-31T22:46:37.216Z,13.79
2022-10-31T22:49:08.996Z,13.77
2022-10-31T22:51:39.267Z,13.78
2022-10-31T22:54:12.403Z,13.82
2022-10-31T22:56:39.281Z,13.80
2022-10-31T22:59:06.478Z,13.80
2022-10-31T23:01:34.851Z,13.77
2022-10-31T23:04:02.756Z,13.69
2022-10-31T23:06:31.890Z,13.68
2022-10-31T23:09:04.593Z,13.64
2022-10-31T23:11:38.879Z,13.59
2022-10-31T23:14:20.588Z,13.65
2022-10-31T23:16:54.463Z,13.60
2022-10-31T23:19:30.055Z,13.66
2022-10-31T23:22:02.322Z,13.68
2022-10-31T23:24:39.015Z,13.63
2022-10-31T23:27:18.573Z,13.57
2022-10-31T23:29:56.051Z,13.54
2022-10-31T23:32:35.320Z,13.62
2022-10-31T23:35:06.835Z,13.64
2022-10-31T23:37:36.214Z,13.59
2022-10-31T23:40:04.044Z,13.60
2022-10-31T23:42:30.901Z,13.51
2022-10-31T23:44:57.672Z,13.53
2022-10-31T23:47:24.535Z,13.46
2022-10-31T23:49:51.372Z,13.52
2022-10-31T23:52:19.094Z,13.50
2022-10-31T23:54:45.971Z,13.44
2022-10-31T23:57:14.473Z,13.44
2022-10-31T23:59:41.644Z,13.43
